Time;durP1;ratioP1;P1;durP2;ratioP2;P2;SDS_P1;SDS_P2;PMS_P1;PMS_P2;Temp;Humidity;BMP_temperature;BMP_pressure;BME280_temperature;BME280_humidity;BME280_pressure;Samples;Min_cycle;Max_cycle;Signal;HPM_P1;HPM_P2
2023/06/05 00:00:41;;;;;;;2.60;1.55;;;;;;;13.59;83.18;102125.56;5116628;28;20035;-66
2023/06/05 00:03:06;;;;;;;3.33;1.75;;;;;;;13.59;83.27;102131.00;5117711;28;20028;-66
2023/06/05 00:05:32;;;;;;;4.05;1.80;;;;;;;13.52;82.98;102123.81;5099315;28;20042;-66
2023/06/05 00:07:58;;;;;;;2.92;1.60;;;;;;;13.35;82.97;102107.78;5116926;28;20110;-66
2023/06/05 00:10:24;;;;;;;1.40;1.13;;;;;;;13.39;82.60;102130.69;5117165;28;20529;-66
2023/06/05 00:12:49;;;;;;;5.10;1.77;;;;;;;13.31;82.85;102121.81;5117297;28;20050;-66
2023/06/05 00:15:15;;;;;;;2.42;1.70;;;;;;;13.28;82.84;102120.34;5115177;28;20016;-66
2023/06/05 00:17:41;;;;;;;2.65;1.42;;;;;;;13.23;82.87;102113.78;5115271;28;20024;-66
2023/06/05 00:20:09;;;;;;;3.00;1.60;;;;;;;13.25;82.98;102117.19;5115925;28;20027;-65
2023/06/05 00:22:35;;;;;;;2.33;1.42;;;;;;;13.23;82.96;102121.91;5099056;28;20486;-66
2023/06/05 00:25:01;;;;;;;3.80;1.42;;;;;;;13.20;82.67;102124.97;5116956;28;20196;-66
2023/06/05 00:27:28;;;;;;;4.18;1.70;;;;;;;13.19;82.87;102121.41;5115184;28;20065;-66
2023/06/05 00:29:53;;;;;;;3.08;1.40;;;;;;;13.13;82.78;102114.88;5116067;28;20027;-66
2023/06/05 00:32:19;;;;;;;3.53;1.60;;;;;;;13.12;82.77;102129.44;5117409;28;20026;-65
2023/06/05 00:34:44;;;;;;;2.85;1.50;;;;;;;13.10;82.80;102122.53;5115917;28;20035;-65
2023/06/05 00:37:11;;;;;;;2.38;1.30;;;;;;;13.09;83.10;102118.97;5124764;28;20027;-66
2023/06/05 00:39:36;;;;;;;3.38;1.38;;;;;;;13.12;83.11;102121.31;5124969;28;20456;-66
2023/06/05 00:42:02;;;;;;;4.72;1.70;;;;;;;13.17;83.60;102123.47;5115676;28;20474;-66
2023/06/05 00:44:27;;;;;;;4.85;1.88;;;;;;;13.16;83.72;102124.50;5113752;28;20501;-65
2023/06/05 00:46:53;;;;;;;2.60;1.52;;;;;;;13.12;83.93;102124.03;5113455;28;20157;-66
2023/06/05 00:49:19;;;;;;;3.42;1.73;;;;;;;13.11;83.88;102129.59;5098037;28;20038;-66
2023/06/05 00:51:46;;;;;;;2.17;1.55;;;;;;;13.08;83.92;102125.41;5115483;28;20030;-66
2023/06/05 00:54:13;;;;;;;3.00;1.77;;;;;;;12.86;83.98;102092.00;5117021;28;20020;-66
2023/06/05 00:56:42;;;;;;;1.88;1.30;;;;;;;12.89;84.21;102102.44;5117544;28;20467;-65
2023/06/05 00:59:07;;;;;;;4.47;2.20;;;;;;;12.94;83.96;102120.81;5116628;28;20458;-65
2023/06/05 01:01:34;;;;;;;2.83;1.73;;;;;;;12.91;84.33;102113.91;5098476;28;20063;-66
2023/06/05 01:04:00;;;;;;;3.92;1.52;;;;;;;12.88;84.38;102119.69;5116560;28;20045;-66
2023/06/05 01:06:27;;;;;;;1.67;1.58;;;;;;;12.86;84.34;102118.19;5116355;28;20062;-65
2023/06/05 01:08:53;;;;;;;2.58;1.65;;;;;;;12.88;84.32;102119.69;5116537;28;20023;-65
2023/06/05 01:11:57;;;;;;;3.30;1.77;;;;;;;12.83;84.65;102119.38;5115834;28;20035;-65
2023/06/05 01:14:27;;;;;;;3.20;1.80;;;;;;;12.82;84.42;102116.88;5073534;28;20040;-66
2023/06/05 01:16:54;;;;;;;3.05;1.70;;;;;;;12.83;84.82;102115.84;5074037;28;20029;-66
2023/06/05 01:19:23;;;;;;;3.47;1.65;;;;;;;12.77;85.13;102097.66;5056727;28;20144;-65
2023/06/05 01:21:49;;;;;;;2.83;1.55;;;;;;;12.84;85.11;102114.81;5057027;28;20020;-66
2023/06/05 01:24:15;;;;;;;2.50;1.88;;;;;;;12.81;85.11;102120.56;5056600;28;20396;-65
2023/06/05 01:27:03;;;;;;;2.90;2.00;;;;;;;12.80;85.38;102108.94;5057320;28;20058;-66
2023/06/05 01:30:07;;;;;;;3.80;2.15;;;;;;;12.80;85.79;102118.91;5073750;28;20044;-65
2023/06/05 01:33:12;;;;;;;3.28;1.90;;;;;;;12.80;85.97;102116.19;5043110;28;20475;-66
2023/06/05 01:35:39;;;;;;;4.85;2.00;;;;;;;12.78;85.87;102110.13;5051159;28;20032;-66
2023/06/05 01:38:06;;;;;;;4.07;1.88;;;;;;;12.78;86.23;102118.22;5073546;28;20036;-67
2023/06/05 01:40:34;;;;;;;3.47;1.77;;;;;;;12.69;86.20;102106.69;5076890;28;20106;-66
2023/06/05 01:43:02;;;;;;;5.63;2.00;;;;;;;12.69;86.57;102110.22;5076944;28;20020;-66
2023/06/05 01:45:29;;;;;;;4.20;2.00;;;;;;;12.71;86.45;102107.31;5100247;28;20061;-65
2023/06/05 01:47:56;;;;;;;5.97;2.50;;;;;;;12.62;86.61;102095.75;5118519;28;20118;-65
2023/06/05 01:50:22;;;;;;;3.90;1.83;;;;;;;12.76;86.85;102112.19;5119624;28;20027;-66
2023/06/05 01:52:49;;;;;;;5.45;2.38;;;;;;;12.56;86.86;102076.75;5118662;28;20036;-65
2023/06/05 01:55:18;;;;;;;5.95;2.40;;;;;;;12.69;87.39;102099.41;5118280;28;20016;-65
2023/06/05 01:57:44;;;;;;;13.63;3.65;;;;;;;12.91;87.69;102107.66;5119594;28;20115;-66
2023/06/05 02:00:14;;;;;;;7.50;3.03;;;;;;;13.11;88.29;102113.38;5117734;28;20077;-65
2023/06/05 02:02:43;;;;;;;4.47;1.85;;;;;;;12.98;88.04;102114.03;5120313;28;20015;-66
2023/06/05 02:05:10;;;;;;;6.97;3.63;;;;;;;12.93;89.05;102114.56;5118092;28;20508;-65
2023/06/05 02:07:40;;;;;;;16.55;5.30;;;;;;;13.09;89.07;102118.97;5119670;28;20023;-65
2023/06/05 02:10:07;;;;;;;14.07;4.10;;;;;;;13.14;89.49;102127.38;5120027;28;20031;-65
2023/06/05 02:12:33;;;;;;;14.52;4.97;;;;;;;13.14;89.91;102094.97;5119323;28;20038;-66
2023/06/05 02:15:01;;;;;;;17.48;5.97;;;;;;;13.61;90.21;102117.28;5119772;28;20028;-66
2023/06/05 02:17:27;;;;;;;11.43;5.13;;;;;;;13.86;90.85;102125.94;5117836;28;20027;-66
2023/06/05 02:19:52;;;;;;;14.63;6.18;;;;;;;14.09;91.15;102126.63;5119400;28;20433;-66
2023/06/05 02:22:18;;;;;;;19.75;8.68;;;;;;;14.28;91.27;102130.63;5119117;28;20031;-65
2023/06/05 02:24:44;;;;;;;27.15;10.00;;;;;;;14.54;92.25;102118.41;5124770;28;20101;-66
2023/06/05 02:27:10;;;;;;;36.80;18.35;;;;;;;14.82;94.31;102109.50;5119573;28;20111;-65
2023/06/05 02:29:38;;;;;;;53.63;22.85;;;;;;;15.18;96.54;102103.94;5119293;28;20069;-65
2023/06/05 02:32:06;;;;;;;44.97;20.50;;;;;;;15.46;97.27;102120.19;5119127;28;20504;-66
2023/06/05 02:34:32;;;;;;;41.03;20.10;;;;;;;15.52;97.15;102116.66;5101262;28;20051;-66
2023/06/05 02:37:01;;;;;;;42.45;19.48;;;;;;;15.52;99.42;102117.50;5118391;28;20031;-66
2023/06/05 02:39:26;;;;;;;39.20;20.17;;;;;;;15.64;99.89;102116.97;5118071;28;20129;-67
2023/06/05 02:41:55;;;;;;;38.60;19.88;;;;;;;15.76;100.00;102125.38;5118041;28;20059;-66
2023/06/05 02:44:21;;;;;;;40.20;20.40;;;;;;;15.86;100.00;102113.13;5117612;28;20432;-66
2023/06/05 02:46:46;;;;;;;41.00;18.67;;;;;;;15.89;100.00;102112.75;5118201;28;20032;-66
2023/06/05 02:49:11;;;;;;;31.25;16.70;;;;;;;15.84;100.00;102111.66;5120403;28;20031;-66
2023/06/05 02:51:37;;;;;;;43.72;19.88;;;;;;;15.86;100.00;102120.41;5118574;28;20402;-65
2023/06/05 02:54:02;;;;;;;35.33;18.67;;;;;;;15.91;100.00;102110.63;5117767;28;20118;-66
2023/06/05 02:56:29;;;;;;;32.72;17.58;;;;;;;15.92;100.00;102111.47;5117794;28;20027;-65
2023/06/05 02:58:56;;;;;;;37.65;19.08;;;;;;;15.94;100.00;102115.66;5118131;28;20512;-66
2023/06/05 03:01:22;;;;;;;36.50;18.45;;;;;;;15.95;100.00;102114.63;5118821;28;20028;-65
2023/06/05 03:03:53;;;;;;;40.17;19.63;;;;;;;15.97;100.00;102120.69;5119023;27;20031;-65
2023/06/05 03:06:18;;;;;;;41.25;19.55;;;;;;;15.98;100.00;102119.63;5118054;28;20084;-66
2023/06/05 03:08:44;;;;;;;35.22;20.00;;;;;;;15.96;100.00;102113.59;5119090;28;20032;-66
2023/06/05 03:11:10;;;;;;;34.03;19.77;;;;;;;15.94;100.00;102122.97;5135399;28;20004;-66
2023/06/05 03:13:36;;;;;;;42.63;21.20;;;;;;;15.97;100.00;102131.56;5125578;28;20019;-66
2023/06/05 03:16:02;;;;;;;29.50;18.90;;;;;;;15.85;100.00;102125.00;5101484;28;20031;-66
2023/06/05 03:18:28;;;;;;;26.45;18.25;;;;;;;15.79;100.00;102138.56;5118640;28;20027;-66
2023/06/05 03:20:57;;;;;;;25.63;18.13;;;;;;;15.77;100.00;102130.63;5118499;28;20019;-66
2023/06/05 03:23:27;;;;;;;25.98;17.98;;;;;;;15.78;100.00;102137.72;5117130;28;20031;-66
2023/06/05 03:25:54;;;;;;;24.92;17.17;;;;;;;15.79;100.00;102133.97;5118978;28;20053;-66
2023/06/05 03:28:21;;;;;;;22.30;15.93;;;;;;;15.73;100.00;102118.50;5118299;28;20106;-66
2023/06/05 03:30:46;;;;;;;23.48;16.58;;;;;;;15.59;100.00;102103.13;5117127;28;20028;-66
2023/06/05 03:33:17;;;;;;;22.63;17.25;;;;;;;15.73;100.00;102118.50;5118324;27;20085;-66
2023/06/05 03:35:42;;;;;;;25.63;17.50;;;;;;;15.81;99.97;102122.91;5101241;28;20486;-65
2023/06/05 03:38:09;;;;;;;21.08;16.33;;;;;;;15.80;99.92;102127.50;5118547;28;20309;-66
2023/06/05 03:40:35;;;;;;;19.92;16.38;;;;;;;15.77;99.73;102118.94;5117821;28;20019;-66
2023/06/05 03:43:00;;;;;;;19.20;13.07;;;;;;;15.77;99.22;102111.63;5117920;28;20050;-66
2023/06/05 03:45:27;;;;;;;18.42;14.20;;;;;;;15.80;99.00;102119.38;5117393;28;20023;-66
2023/06/05 03:47:54;;;;;;;18.65;15.13;;;;;;;15.87;98.87;102122.94;5116470;28;20039;-66
2023/06/05 03:50:20;;;;;;;18.88;14.05;;;;;;;15.89;98.70;102118.16;5118262;28;20028;-66
2023/06/05 03:52:52;;;;;;;14.50;12.88;;;;;;;15.82;98.37;102095.56;5118030;28;20300;-66
2023/06/05 03:55:19;;;;;;;16.35;11.80;;;;;;;16.01;98.41;102114.84;5119960;28;20026;-66
2023/06/05 03:57:44;;;;;;;15.25;10.48;;;;;;;16.11;97.98;102128.88;5108955;28;20038;-66
2023/06/05 04:00:10;;;;;;;14.32;10.65;;;;;;;16.12;97.71;102122.41;5117581;28;20060;-65
2023/06/05 04:02:37;;;;;;;12.48;9.75;;;;;;;16.12;97.87;102131.38;5117555;28;20042;-66
2023/06/05 04:05:03;;;;;;;11.93;9.80;;;;;;;16.10;97.25;102119.91;5116671;28;20900;-66
2023/06/05 04:07:30;;;;;;;10.63;8.77;;;;;;;16.16;96.78;102118.25;5118366;28;20441;-70
2023/06/05 04:09:55;;;;;;;11.80;8.85;;;;;;;16.20;96.50;102122.25;5118289;28;20034;-66
2023/06/05 04:12:21;;;;;;;13.32;8.60;;;;;;;16.10;95.79;102106.34;5117970;28;20023;-66
2023/06/05 04:14:47;;;;;;;10.38;7.90;;;;;;;16.27;94.90;102114.94;5125325;28;20039;-67
2023/06/05 04:17:13;;;;;;;10.57;7.38;;;;;;;16.37;94.83;102126.25;5127294;28;20080;-66
2023/06/05 04:19:40;;;;;;;11.10;8.68;;;;;;;16.39;94.35;102105.16;5117889;28;20049;-66
2023/06/05 04:22:05;;;;;;;11.23;7.60;;;;;;;16.56;93.99;102118.34;5116503;28;20114;-66
2023/06/05 04:24:31;;;;;;;13.40;7.85;;;;;;;16.83;93.39;102113.81;5117314;28;20462;-66
2023/06/05 04:27:00;;;;;;;10.93;7.38;;;;;;;17.17;92.44;102115.47;5099386;28;20038;-66
2023/06/05 04:29:26;;;;;;;9.60;7.10;;;;;;;17.44;91.15;102116.25;5117557;28;20026;-66
2023/06/05 04:31:51;;;;;;;10.40;7.43;;;;;;;17.66;90.54;102110.53;5117425;28;20032;-66
2023/06/05 04:34:18;;;;;;;9.73;6.78;;;;;;;17.82;89.91;102116.38;5116235;28;20032;-67
2023/06/05 04:36:44;;;;;;;11.73;6.80;;;;;;;18.05;88.88;102115.88;5117644;28;20494;-66
2023/06/05 04:39:16;;;;;;;11.40;6.50;;;;;;;18.52;86.96;102110.16;5115990;28;20022;-69
2023/06/05 04:41:45;;;;;;;10.30;6.00;;;;;;;20.32;78.63;102117.34;5126535;28;20095;-73
2023/06/05 04:44:18;;;;;;;9.23;6.00;;;;;;;20.32;78.18;102104.50;5121722;28;20054;-66
2023/06/05 04:46:45;;;;;;;7.97;5.60;;;;;;;21.40;72.76;102116.25;5117234;28;20062;-66
2023/06/05 04:49:11;;;;;;;10.80;5.95;;;;;;;21.49;71.64;102112.06;5116002;28;20458;-66
2023/06/05 04:51:37;;;;;;;6.93;4.78;;;;;;;22.34;68.45;102105.00;5115628;28;20111;-67
2023/06/05 04:54:03;;;;;;;7.93;4.70;;;;;;;22.95;66.00;102103.34;5116003;28;20482;-66
2023/06/05 04:56:29;;;;;;;6.78;4.90;;;;;;;23.08;64.98;102101.31;5117259;28;20133;-68
2023/06/05 04:58:54;;;;;;;6.53;4.30;;;;;;;23.08;64.96;102106.81;5117255;28;20065;-66
2023/06/05 05:01:20;;;;;;;9.70;5.30;;;;;;;22.09;67.64;102088.91;5117257;28;20019;-66
2023/06/05 05:03:46;;;;;;;8.43;4.82;;;;;;;22.12;67.56;102104.88;5117296;28;20026;-66
2023/06/05 05:06:14;;;;;;;7.00;4.60;;;;;;;22.14;67.49;102101.88;5099207;28;20030;-66
2023/06/05 05:08:40;;;;;;;9.57;4.50;;;;;;;22.41;66.08;102100.19;5117346;28;20024;-66
2023/06/05 05:11:05;;;;;;;8.40;4.32;;;;;;;22.43;65.61;102095.31;5117149;28;20028;-67
2023/06/05 05:13:31;;;;;;;10.60;4.65;;;;;;;22.40;64.80;102093.06;5115946;28;20027;-67
2023/06/05 05:15:56;;;;;;;9.60;4.18;;;;;;;21.70;65.55;102102.38;5121232;28;20390;-67
2023/06/05 05:18:22;;;;;;;8.60;4.38;;;;;;;21.50;66.11;102105.50;5119428;28;20057;-66
2023/06/05 05:20:47;;;;;;;8.95;3.97;;;;;;;21.65;66.47;102106.91;5119494;28;20079;-66
2023/06/05 05:23:14;;;;;;;8.48;4.28;;;;;;;22.05;66.23;102105.00;5120322;28;20091;-66
2023/06/05 05:25:39;;;;;;;6.65;3.90;;;;;;;22.36;64.97;102102.03;5118781;28;20093;-67
2023/06/05 05:28:06;;;;;;;7.68;4.30;;;;;;;22.05;64.54;102113.22;5119865;28;20027;-67
2023/06/05 05:30:32;;;;;;;9.35;4.25;;;;;;;21.71;65.05;102105.94;5102673;28;20398;-67
2023/06/05 05:32:58;;;;;;;8.70;4.18;;;;;;;21.32;65.66;102111.06;5119091;28;20039;-67
2023/06/05 05:35:23;;;;;;;7.50;4.32;;;;;;;21.17;66.32;102108.00;5119213;28;20016;-68
2023/06/05 05:37:49;;;;;;;8.98;5.00;;;;;;;20.94;66.86;102109.66;5121490;28;20375;-67
2023/06/05 05:40:14;;;;;;;10.23;5.18;;;;;;;20.90;67.98;102100.25;5119860;28;20027;-74
2023/06/05 05:42:41;;;;;;;10.23;4.47;;;;;;;21.02;68.02;102103.81;5119773;28;20031;-66
2023/06/05 05:45:08;;;;;;;11.57;4.70;;;;;;;21.06;68.47;102105.03;5101687;28;20036;-66
2023/06/05 05:47:33;;;;;;;8.25;4.72;;;;;;;21.13;67.80;102102.19;5119219;27;20031;-66
2023/06/05 05:49:59;;;;;;;8.27;5.05;;;;;;;20.90;67.01;102103.00;5118177;28;20031;-67
2023/06/05 05:52:24;;;;;;;8.55;4.80;;;;;;;20.75;67.39;102114.38;5120046;28;20554;-67
2023/06/05 05:54:51;;;;;;;9.63;5.13;;;;;;;20.75;68.05;102110.81;5118528;28;20057;-67
2023/06/05 05:57:17;;;;;;;9.20;5.30;;;;;;;20.73;67.78;102112.94;5119447;28;20401;-66
2023/06/05 05:59:44;;;;;;;11.68;5.38;;;;;;;20.58;67.88;102116.13;5120901;28;20023;-67
2023/06/05 06:02:11;;;;;;;9.43;5.30;;;;;;;20.48;68.21;102115.84;5120721;28;20024;-67
2023/06/05 06:04:38;;;;;;;8.50;5.68;;;;;;;20.54;68.04;102101.28;5118953;28;20035;-66
2023/06/05 06:07:05;;;;;;;10.98;5.90;;;;;;;20.87;68.08;102119.88;5120414;28;20024;-66
2023/06/05 06:09:31;;;;;;;11.80;5.60;;;;;;;21.23;67.48;102126.22;5118666;28;20027;-66
2023/06/05 06:11:57;;;;;;;12.07;5.45;;;;;;;21.52;67.11;102111.59;5119410;28;20023;-66
2023/06/05 06:14:23;;;;;;;9.65;5.28;;;;;;;21.57;66.96;102119.06;5118002;28;20096;-67
2023/06/05 06:16:50;;;;;;;11.60;5.45;;;;;;;21.49;66.42;102120.28;5118098;28;20255;-67
2023/06/05 06:19:16;;;;;;;12.15;5.90;;;;;;;21.55;66.48;102116.56;5119852;28;20490;-66
2023/06/05 06:21:42;;;;;;;11.32;5.43;;;;;;;21.41;66.24;102111.59;5118668;28;20032;-67
2023/06/05 06:24:09;;;;;;;11.55;5.55;;;;;;;21.23;67.02;102115.28;5118605;28;20051;-67
2023/06/05 06:26:38;;;;;;;8.48;4.72;;;;;;;21.47;66.94;102122.41;5119188;28;20394;-67
2023/06/05 06:29:04;;;;;;;12.20;5.18;;;;;;;21.84;65.92;102115.78;5118484;28;20086;-66
2023/06/05 06:31:30;;;;;;;10.07;5.18;;;;;;;22.19;65.34;102111.06;5118420;28;20016;-66
2023/06/05 06:33:55;;;;;;;14.98;5.93;;;;;;;22.42;64.46;102112.84;5118360;28;20490;-67
2023/06/05 06:36:21;;;;;;;13.07;5.65;;;;;;;22.73;63.63;102124.34;5119170;28;20030;-67
2023/06/05 06:38:46;;;;;;;12.40;5.93;;;;;;;22.79;63.19;102119.78;5119825;28;20035;-67
2023/06/05 06:41:12;;;;;;;13.23;6.45;;;;;;;22.50;63.40;102111.63;5119068;28;20245;-67
2023/06/05 06:43:37;;;;;;;14.63;6.75;;;;;;;22.47;63.37;102109.38;5101972;28;20475;-67
2023/06/05 06:46:04;;;;;;;12.52;7.20;;;;;;;22.12;63.14;102120.44;5117753;28;20076;-67
2023/06/05 06:48:30;;;;;;;14.20;7.15;;;;;;;21.71;64.03;102119.63;5119459;28;20031;-66
2023/06/05 06:50:55;;;;;;;16.73;6.97;;;;;;;21.68;64.71;102120.94;5119746;28;20039;-67
2023/06/05 06:53:21;;;;;;;10.05;5.65;;;;;;;21.77;65.27;102104.97;5119526;28;20028;-66
2023/06/05 06:55:46;;;;;;;16.58;6.90;;;;;;;22.18;64.30;102117.59;5118891;28;20053;-67
2023/06/05 06:58:11;;;;;;;14.45;6.50;;;;;;;21.90;64.36;102121.13;5117836;28;20061;-72
2023/06/05 07:00:37;;;;;;;12.93;6.40;;;;;;;21.44;65.66;102114.69;5119142;28;20043;-66
2023/06/05 07:03:03;;;;;;;13.95;6.63;;;;;;;21.91;65.61;102111.84;5118352;28;20035;-67
2023/06/05 07:05:29;;;;;;;16.13;6.20;;;;;;;22.15;65.30;102109.88;5119489;28;20083;-67
2023/06/05 07:07:55;;;;;;;16.35;7.10;;;;;;;22.54;64.29;102107.28;5118510;28;20110;-67
2023/06/05 07:10:20;;;;;;;13.75;6.30;;;;;;;22.62;64.24;102112.38;5118009;28;20114;-67
2023/06/05 07:12:46;;;;;;;15.70;6.18;;;;;;;22.78;63.80;102118.97;5117726;28;20249;-68
2023/06/05 07:15:11;;;;;;;15.60;6.20;;;;;;;22.52;64.29;102115.78;5117754;28;20024;-67
2023/06/05 07:17:37;;;;;;;13.50;6.45;;;;;;;22.43;63.74;102110.94;5117801;28;20114;-67
2023/06/05 07:20:05;;;;;;;17.20;7.18;;;;;;;22.27;64.02;102112.56;5117491;28;20080;-67
2023/06/05 07:22:30;;;;;;;21.13;8.85;;;;;;;22.08;64.42;102113.81;5117492;28;20023;-67
2023/06/05 07:24:56;;;;;;;19.13;7.93;;;;;;;21.84;65.07;102116.63;5118162;28;20058;-67
2023/06/05 07:27:22;;;;;;;17.05;8.95;;;;;;;21.59;65.48;102116.94;5117880;28;20057;-67
2023/06/05 07:29:47;;;;;;;17.73;8.52;;;;;;;21.76;65.44;102117.03;5118595;28;20026;-67
2023/06/05 07:32:13;;;;;;;17.90;8.32;;;;;;;21.87;64.93;102113.41;5117484;28;20036;-67
2023/06/05 07:34:38;;;;;;;16.83;9.80;;;;;;;21.57;64.35;102122.63;5118689;28;20114;-68
2023/06/05 07:37:07;;;;;;;16.63;9.40;;;;;;;21.46;64.83;102114.47;5089812;28;20027;-67
2023/06/05 07:39:32;;;;;;;15.20;8.48;;;;;;;21.47;65.79;102121.59;5118897;28;20019;-67
2023/06/05 07:41:58;;;;;;;17.02;9.38;;;;;;;21.86;64.98;102111.75;5099902;28;20027;-67
2023/06/05 07:44:24;;;;;;;20.17;9.30;;;;;;;22.25;64.35;102106.47;5117843;28;20035;-68
2023/06/05 07:46:50;;;;;;;17.88;8.85;;;;;;;22.28;63.99;102106.00;5117627;28;20026;-66
2023/06/05 07:49:15;;;;;;;18.50;9.70;;;;;;;21.81;64.42;102112.47;5116221;28;20039;-66
2023/06/05 07:51:43;;;;;;;28.77;8.80;;;;;;;21.73;65.27;102106.53;5129010;28;20074;-68
2023/06/05 07:54:13;;;;;;;15.18;8.73;;;;;;;21.94;65.26;102110.53;5126662;28;20033;-70
2023/06/05 07:56:39;;;;;;;16.35;9.02;;;;;;;22.16;65.22;102110.72;5119884;28;20520;-67
2023/06/05 07:59:06;;;;;;;14.52;8.52;;;;;;;22.25;64.53;102111.97;5118622;28;20026;-67
2023/06/05 08:01:36;;;;;;;15.38;8.95;;;;;;;21.88;64.89;102125.19;5118438;28;20035;-67
2023/06/05 08:04:06;;;;;;;15.52;8.82;;;;;;;21.66;65.88;102125.03;5116787;28;20059;-67
2023/06/05 08:06:32;;;;;;;13.98;8.00;;;;;;;21.19;66.98;102100.38;5117312;28;20098;-67
2023/06/05 08:09:01;;;;;;;15.88;8.32;;;;;;;21.28;67.07;102127.16;5118680;28;20059;-67
2023/06/05 08:11:28;;;;;;;11.88;7.05;;;;;;;21.31;66.55;102114.91;5118272;28;20039;-66
2023/06/05 08:13:57;;;;;;;9.32;6.57;;;;;;;21.48;66.36;102121.34;5116534;28;20024;-67
2023/06/05 08:16:22;;;;;;;13.10;7.38;;;;;;;21.68;65.94;102126.44;5116589;28;20015;-67
2023/06/05 08:18:48;;;;;;;10.57;7.00;;;;;;;21.81;65.48;102117.94;5117178;28;20045;-67
2023/06/05 08:21:13;;;;;;;8.45;6.18;;;;;;;21.91;65.08;102119.22;5118289;28;20118;-67
2023/06/05 08:23:39;;;;;;;8.77;5.57;;;;;;;22.14;64.46;102118.31;5117546;28;20052;-67
2023/06/05 08:26:10;;;;;;;7.65;5.50;;;;;;;22.23;64.18;102120.44;5117707;28;20016;-67
2023/06/05 08:28:40;;;;;;;9.63;5.57;;;;;;;22.32;63.77;102107.19;5117050;28;20050;-67
2023/06/05 08:31:06;;;;;;;8.27;5.78;;;;;;;22.21;62.11;102122.59;5118601;28;20038;-67
2023/06/05 08:33:33;;;;;;;8.73;5.97;;;;;;;21.96;62.00;102127.56;5117447;28;20031;-67
2023/06/05 08:35:58;;;;;;;9.70;5.70;;;;;;;21.76;62.49;102127.97;5116887;28;20129;-66
2023/06/05 08:38:24;;;;;;;7.93;4.70;;;;;;;21.99;62.51;102127.91;5128416;28;20028;-66
2023/06/05 08:40:58;;;;;;;8.48;4.93;;;;;;;22.18;61.46;102131.31;5121235;28;20478;-67
2023/06/05 08:43:23;;;;;;;11.27;5.57;;;;;;;22.00;60.60;102124.09;5114772;28;20116;-67
2023/06/05 08:45:52;;;;;;;8.38;5.70;;;;;;;21.78;60.56;102126.63;5113717;28;20051;-67
2023/06/05 08:48:20;;;;;;;11.55;5.85;;;;;;;21.38;61.85;102099.19;5116263;28;20026;-66
2023/06/05 08:50:48;;;;;;;8.15;5.47;;;;;;;21.55;62.36;102118.47;5098786;28;20023;-67
2023/06/05 08:53:16;;;;;;;8.00;5.68;;;;;;;21.73;62.04;102115.59;5116982;28;20023;-67
2023/06/05 08:55:44;;;;;;;8.55;5.18;;;;;;;21.95;60.76;102115.78;5115937;28;20023;-66
2023/06/05 08:58:14;;;;;;;8.40;5.15;;;;;;;21.66;60.81;102119.53;5115937;28;20479;-67
2023/06/05 09:00:40;;;;;;;6.32;4.63;;;;;;;21.40;60.51;102118.16;5116515;28;20040;-68
2023/06/05 09:03:06;;;;;;;6.88;4.57;;;;;;;21.44;60.49;102114.69;5118598;28;20027;-67
2023/06/05 09:05:32;;;;;;;7.40;4.40;;;;;;;21.48;59.70;102110.38;5117033;28;20055;-66
2023/06/05 09:07:58;;;;;;;8.18;5.05;;;;;;;21.30;60.47;102089.44;5115959;28;20223;-66
2023/06/05 09:10:27;;;;;;;7.03;4.32;;;;;;;21.21;61.26;102111.94;5118315;28;20434;-68
2023/06/05 09:13:00;;;;;;;7.32;4.40;;;;;;;21.21;60.82;102101.81;5116800;28;20019;-67
2023/06/05 09:15:30;;;;;;;8.80;4.40;;;;;;;21.58;60.62;102105.13;5117890;28;20107;-67
2023/06/05 09:18:14;;;;;;;6.43;4.43;;;;;;;21.80;59.65;102104.50;5118387;28;20022;-70
2023/06/05 09:20:47;;;;;;;8.25;5.15;;;;;;;21.08;61.58;102104.78;5118116;28;20019;-67
2023/06/05 09:23:28;;;;;;;6.35;4.20;;;;;;;20.76;62.64;102101.53;5115988;28;20032;-67
2023/06/05 09:25:58;;;;;;;9.70;4.50;;;;;;;20.88;62.91;102099.66;5134644;28;20054;-67
2023/06/05 09:28:24;;;;;;;8.73;4.68;;;;;;;20.63;62.88;102106.19;5119014;28;20028;-67
2023/06/05 09:30:57;;;;;;;10.25;3.97;;;;;;;20.83;62.71;102105.03;5117236;28;20030;-67
2023/06/05 09:33:24;;;;;;;7.47;4.10;;;;;;;20.94;62.49;102089.69;5117305;28;20028;-67
2023/06/05 09:36:06;;;;;;;7.45;4.57;;;;;;;20.83;61.75;102105.03;5116240;28;20106;-67
2023/06/05 09:38:32;;;;;;;8.25;4.13;;;;;;;21.02;62.01;102100.25;5115751;28;20110;-67
2023/06/05 09:41:04;;;;;;;9.32;5.18;;;;;;;20.63;63.97;102102.59;5115295;28;20430;-67
2023/06/05 09:43:29;;;;;;;8.00;4.82;;;;;;;20.27;65.05;102101.63;5114627;28;20027;-66
2023/06/05 09:45:55;;;;;;;7.60;4.03;;;;;;;19.99;66.23;102080.38;5115197;28;20046;-66
2023/06/05 09:48:20;;;;;;;7.53;4.80;;;;;;;20.40;64.55;102097.88;5116427;28;20035;-67
2023/06/05 09:50:46;;;;;;;8.07;4.75;;;;;;;20.15;66.63;102089.81;5116599;28;20032;-67
2023/06/05 09:53:16;;;;;;;8.18;4.95;;;;;;;20.18;66.31;102105.75;5115083;28;20046;-67
2023/06/05 09:55:42;;;;;;;10.05;5.68;;;;;;;20.13;67.91;102102.88;5116741;28;20117;-67
2023/06/05 09:58:13;;;;;;;9.02;5.32;;;;;;;19.98;68.64;102106.03;5119187;28;20031;-67
2023/06/05 10:00:41;;;;;;;7.90;5.13;;;;;;;19.73;69.29;102091.63;5119741;28;20027;-67
2023/06/05 10:03:17;;;;;;;18.52;12.40;;;;;;;19.92;69.07;102115.97;5120069;28;20381;-67
2023/06/05 10:05:45;;;;;;;10.73;5.75;;;;;;;20.07;66.47;102093.72;5118434;28;20024;-67
2023/06/05 10:08:13;;;;;;;10.20;5.45;;;;;;;20.12;66.91;102096.56;5101516;28;20418;-66
2023/06/05 10:10:39;;;;;;;10.55;5.43;;;;;;;19.97;67.22;102095.31;5126374;28;20047;-67
2023/06/05 10:13:05;;;;;;;8.93;5.03;;;;;;;20.10;66.48;102067.84;5131253;28;20024;-66
2023/06/05 10:15:32;;;;;;;10.23;5.80;;;;;;;20.01;67.87;102088.34;5126776;28;20520;-67
2023/06/05 10:17:57;;;;;;;7.00;4.28;;;;;;;19.95;67.98;102098.28;5120763;28;20024;-67
2023/06/05 10:20:23;;;;;;;8.00;5.10;;;;;;;19.98;68.27;102094.28;5119336;28;20051;-67
2023/06/05 10:22:50;;;;;;;7.35;4.80;;;;;;;19.92;69.16;102079.63;5120691;28;20168;-67
2023/06/05 10:25:19;;;;;;;9.63;5.30;;;;;;;20.03;68.92;102103.41;5119796;28;20038;-67
2023/06/05 10:28:07;;;;;;;6.53;4.63;;;;;;;20.11;68.44;102097.66;5118536;28;20019;-68
2023/06/05 10:31:04;;;;;;;9.82;4.00;;;;;;;20.11;68.12;102099.56;5118905;28;20027;-66
2023/06/05 10:34:04;;;;;;;9.30;4.88;;;;;;;20.26;68.28;102097.22;5111174;28;20034;-66
2023/06/05 10:36:39;;;;;;;10.18;4.82;;;;;;;20.10;68.80;102101.47;5117417;28;20028;-67
2023/06/05 10:39:07;;;;;;;8.00;4.10;;;;;;;20.38;66.99;102094.53;5117365;28;20026;-66
2023/06/05 10:41:33;;;;;;;9.18;4.80;;;;;;;20.33;67.58;102091.66;5121400;28;20099;-67
2023/06/05 10:43:58;;;;;;;10.63;4.75;;;;;;;20.19;69.30;102085.56;5116769;28;20070;-66
2023/06/05 10:46:33;;;;;;;7.78;4.35;;;;;;;20.23;69.79;102084.03;5101668;28;20031;-66
2023/06/05 10:49:07;;;;;;;9.55;4.97;;;;;;;20.13;70.60;102079.13;5119070;28;20030;-67
2023/06/05 10:51:37;;;;;;;;;;;;;;;20.22;70.39;102084.25;5117906;28;20130;-67
2023/06/05 10:54:05;;;;;;;7.70;4.63;;;;;;;20.17;71.20;102084.97;5118880;28;19937;-67
2023/06/05 10:57:02;;;;;;;9.82;5.35;;;;;;;20.11;71.96;102075.78;5117688;28;20019;-67
2023/06/05 10:59:33;;;;;;;9.73;4.70;;;;;;;20.22;71.55;102087.00;5118920;28;20019;-67
2023/06/05 11:02:05;;;;;;;9.15;4.88;;;;;;;20.24;71.10;102085.69;5118819;28;20027;-68
2023/06/05 11:04:42;;;;;;;9.50;4.40;;;;;;;20.17;70.33;102087.69;5118341;28;20028;-67
2023/06/05 11:07:20;;;;;;;8.73;4.82;;;;;;;20.15;70.62;102078.88;5118780;28;20024;-67
2023/06/05 11:10:06;;;;;;;7.18;4.50;;;;;;;20.27;70.82;102081.69;5119134;28;20429;-67
2023/06/05 11:12:34;;;;;;;9.70;4.85;;;;;;;20.42;70.53;102087.53;5117167;28;20027;-67
2023/06/05 11:15:00;;;;;;;9.63;4.38;;;;;;;20.45;69.69;102086.22;5118405;28;20036;-70
2023/06/05 11:17:36;;;;;;;10.57;4.60;;;;;;;20.48;69.33;102081.13;5116895;28;20045;-67
2023/06/05 11:20:09;;;;;;;9.48;4.50;;;;;;;20.30;70.16;102078.47;5118507;28;20035;-67
2023/06/05 11:22:58;;;;;;;8.20;4.47;;;;;;;20.32;70.28;102074.41;5117790;28;20031;-70